Time;durP1;ratioP1;P1;durP2;ratioP2;P2;SDS_P1;SDS_P2;PMS_P1;PMS_P2;Temp;Humidity;BMP_temperature;BMP_pressure;BME280_temperature;BME280_humidity;BME280_pressure;Samples;Min_cycle;Max_cycle;Signal;HPM_P1;HPM_P2
2022/09/13 00:01:02;;;;;;;3.55;3.25;;;;;;;14.44;76.02;97908.13;7383869;19;20035;-70
2022/09/13 00:03:29;;;;;;;4.32;3.85;;;;;;;14.33;77.44;97909.47;7388182;19;20119;-70
2022/09/13 00:05:56;;;;;;;5.55;3.55;;;;;;;14.28;77.76;97906.53;7387442;19;20022;-70
2022/09/13 00:08:23;;;;;;;5.60;3.72;;;;;;;14.27;77.68;97907.56;7381913;19;20014;-70
2022/09/13 00:10:50;;;;;;;4.43;3.70;;;;;;;14.32;77.41;97902.47;7386523;19;20019;-70
2022/09/13 00:13:17;;;;;;;4.80;3.75;;;;;;;14.33;76.83;97898.81;7385552;19;20046;-70
2022/09/13 00:15:45;;;;;;;7.97;3.63;;;;;;;14.30;76.84;97901.84;7384948;19;20014;-70
2022/09/13 00:18:13;;;;;;;6.10;4.35;;;;;;;14.19;77.06;97907.66;7386638;19;20395;-70
2022/09/13 00:20:39;;;;;;;4.43;3.75;;;;;;;14.28;76.98;97903.88;7389090;19;20043;-70
2022/09/13 00:23:06;;;;;;;3.72;3.40;;;;;;;14.21;76.93;97903.81;7383185;19;20077;-71
2022/09/13 00:25:33;;;;;;;5.95;3.63;;;;;;;14.20;78.16;97901.34;7382673;19;20042;-70
2022/09/13 00:28:00;;;;;;;8.63;4.20;;;;;;;14.25;77.36;97896.28;7384387;19;20093;-70
2022/09/13 00:30:28;;;;;;;5.07;3.30;;;;;;;14.26;76.91;97888.09;7386375;19;20083;-70
2022/09/13 00:32:54;;;;;;;6.72;3.85;;;;;;;14.18;77.93;97895.38;7384498;19;20010;-70
2022/09/13 00:35:21;;;;;;;5.10;3.65;;;;;;;14.17;78.57;97885.78;7387040;19;20007;-70
2022/09/13 00:37:48;;;;;;;4.88;3.92;;;;;;;14.10;77.86;97890.19;7385594;19;20035;-70
2022/09/13 00:40:15;;;;;;;5.25;3.67;;;;;;;14.06;78.46;97889.78;7384606;19;20039;-70
2022/09/13 00:42:42;;;;;;;5.65;4.05;;;;;;;14.04;78.89;97889.94;7383354;19;20054;-70
2022/09/13 00:45:09;;;;;;;6.82;3.67;;;;;;;14.01;78.59;97893.00;7384961;19;20039;-70
2022/09/13 00:47:48;;;;;;;5.18;3.88;;;;;;;13.94;79.07;97892.09;7384319;19;20018;-70
2022/09/13 00:50:23;;;;;;;6.32;3.90;;;;;;;13.87;79.89;97901.00;7384034;19;20019;-70
2022/09/13 00:53:11;;;;;;;4.53;4.13;;;;;;;13.86;79.60;97908.16;7384916;19;20046;-70
2022/09/13 00:55:59;;;;;;;8.82;4.18;;;;;;;13.64;79.28;97898.50;7385605;19;20928;-70
2022/09/13 00:58:28;;;;;;;5.95;4.10;;;;;;;13.46;79.47;97898.91;7379896;19;20018;-70
2022/09/13 01:00:57;;;;;;;5.60;4.72;;;;;;;13.49;79.49;97882.59;7381469;19;20048;-70
2022/09/13 01:03:26;;;;;;;7.40;4.80;;;;;;;13.36;79.79;97877.94;7386021;19;20043;-71
2022/09/13 01:05:57;;;;;;;4.55;4.15;;;;;;;13.40;80.21;97887.16;7383842;19;20018;-70
2022/09/13 01:08:23;;;;;;;7.75;5.07;;;;;;;13.47;80.76;97872.13;7381234;19;20054;-70
2022/09/13 01:10:51;;;;;;;5.43;4.78;;;;;;;13.52;80.40;97876.91;7385716;19;20494;-70
2022/09/13 01:13:20;;;;;;;5.78;5.20;;;;;;;13.44;80.33;97869.84;7379632;19;20043;-70
2022/09/13 01:15:47;;;;;;;5.07;4.00;;;;;;;13.47;80.14;97863.34;7381596;19;20038;-70
2022/09/13 01:18:14;;;;;;;4.40;3.95;;;;;;;13.47;80.08;97864.16;7384831;19;20072;-70
2022/09/13 01:20:56;;;;;;;5.38;4.45;;;;;;;13.47;80.16;97869.47;7386011;19;20048;-70
2022/09/13 01:23:34;;;;;;;6.32;4.53;;;;;;;13.47;80.73;97864.16;7383782;19;20022;-70
2022/09/13 01:26:19;;;;;;;5.65;4.18;;;;;;;13.59;81.09;97870.66;7385761;19;20026;-70
2022/09/13 01:29:03;;;;;;;5.90;3.95;;;;;;;13.65;80.77;97869.06;7385099;19;20363;-70
2022/09/13 01:31:51;;;;;;;5.18;4.65;;;;;;;13.65;80.61;97870.91;7382531;19;20011;-70
2022/09/13 01:34:18;;;;;;;7.75;4.38;;;;;;;13.61;80.59;97871.31;7383732;19;20046;-70
2022/09/13 01:37:12;;;;;;;7.47;4.60;;;;;;;13.65;80.51;97876.22;7383680;19;20159;-70
2022/09/13 01:39:57;;;;;;;6.63;4.20;;;;;;;13.63;80.36;97867.63;7381913;19;20010;-70
2022/09/13 01:42:38;;;;;;;4.45;4.00;;;;;;;13.60;80.23;97868.81;7384340;19;20033;-70
2022/09/13 01:45:32;;;;;;;6.35;3.85;;;;;;;13.61;80.33;97873.09;7382574;19;20018;-70
2022/09/13 01:48:04;;;;;;;5.82;4.78;;;;;;;13.65;80.23;97869.06;7380770;19;20492;-70
2022/09/13 01:50:49;;;;;;;7.15;4.38;;;;;;;13.66;80.04;97869.91;7384310;19;20394;-70
2022/09/13 01:53:29;;;;;;;5.07;4.15;;;;;;;13.65;80.02;97863.75;7383759;19;20478;-70
2022/09/13 01:56:10;;;;;;;4.35;3.63;;;;;;;13.67;80.32;97861.75;7378747;19;20034;-70
2022/09/13 01:58:40;;;;;;;5.70;4.32;;;;;;;13.68;80.41;97874.00;7381239;19;20026;-70
2022/09/13 02:01:17;;;;;;;5.00;3.78;;;;;;;13.72;80.12;97875.31;7385798;19;20052;-70
2022/09/13 02:03:52;;;;;;;6.75;4.43;;;;;;;13.75;79.99;97882.06;7381912;19;20025;-70
2022/09/13 02:06:23;;;;;;;7.65;4.57;;;;;;;13.68;79.67;97875.84;7381266;19;20022;-70
2022/09/13 02:08:55;;;;;;;4.72;4.20;;;;;;;13.61;79.53;97876.63;7384390;19;20054;-70
2022/09/13 02:11:22;;;;;;;4.85;4.35;;;;;;;13.56;79.55;97880.81;7382545;19;20018;-70
2022/09/13 02:13:59;;;;;;;4.90;4.50;;;;;;;13.57;79.78;97877.97;7377154;19;20018;-70
2022/09/13 02:16:36;;;;;;;4.72;4.28;;;;;;;13.59;79.73;97875.97;7382683;19;20018;-70
2022/09/13 02:19:12;;;;;;;6.68;4.35;;;;;;;13.63;80.32;97872.94;7383606;19;20013;-70
2022/09/13 02:21:43;;;;;;;6.80;4.38;;;;;;;13.64;80.17;97871.91;7378861;19;20585;-70
2022/09/13 02:24:17;;;;;;;8.05;4.70;;;;;;;13.55;79.84;97877.34;7385391;19;20067;-70
2022/09/13 02:26:45;;;;;;;6.63;4.78;;;;;;;13.56;79.48;97880.81;7386896;19;20023;-71
2022/09/13 02:29:16;;;;;;;5.10;4.60;;;;;;;13.40;79.31;97873.88;7384860;19;20019;-70
2022/09/13 02:31:49;;;;;;;5.90;4.68;;;;;;;13.30;79.67;97886.66;7389041;19;20014;-70
2022/09/13 02:34:20;;;;;;;6.25;4.90;;;;;;;13.36;80.41;97885.91;7385314;19;20605;-70
2022/09/13 02:36:48;;;;;;;5.47;4.72;;;;;;;13.10;80.36;97884.50;7389151;19;20010;-70
2022/09/13 02:39:16;;;;;;;5.82;5.18;;;;;;;12.98;80.59;97875.38;7386674;19;20014;-70
2022/09/13 02:41:51;;;;;;;7.47;5.40;;;;;;;12.84;80.97;97884.97;7388941;19;20520;-70
2022/09/13 02:44:22;;;;;;;6.38;5.03;;;;;;;12.86;80.81;97888.28;7382872;19;20014;-70
2022/09/13 02:47:20;;;;;;;6.85;4.93;;;;;;;12.92;81.17;97884.06;7387489;19;20779;-70
2022/09/13 02:50:00;;;;;;;7.90;4.97;;;;;;;12.84;81.67;97889.47;7391301;19;20010;-70
2022/09/13 02:52:34;;;;;;;5.15;4.63;;;;;;;12.90;82.01;97881.59;7388539;19;20010;-70
2022/09/13 02:55:10;;;;;;;8.27;4.82;;;;;;;12.92;81.70;97873.44;7385310;19;20042;-70
2022/09/13 02:57:41;;;;;;;7.10;5.88;;;;;;;13.03;81.91;97872.16;7388545;19;20014;-70
2022/09/13 03:00:08;;;;;;;8.18;5.60;;;;;;;13.11;81.63;97870.25;7389743;19;20120;-70
2022/09/13 03:02:36;;;;;;;8.52;5.43;;;;;;;13.01;81.34;97869.69;7387465;19;20050;-70
2022/09/13 03:05:04;;;;;;;5.75;5.15;;;;;;;13.03;81.76;97877.47;7386782;19;20386;-70
2022/09/13 03:07:31;;;;;;;5.65;5.03;;;;;;;13.03;81.86;97885.44;7386060;19;20015;-70
2022/09/13 03:10:04;;;;;;;5.85;5.30;;;;;;;13.00;81.59;97880.50;7390602;19;20035;-70
2022/09/13 03:12:56;;;;;;;7.13;5.35;;;;;;;12.93;81.41;97888.38;7387835;19;20030;-70
2022/09/13 03:15:45;;;;;;;5.43;4.43;;;;;;;12.96;81.58;97882.69;7387231;19;20015;-70
2022/09/13 03:18:36;;;;;;;6.45;4.50;;;;;;;12.97;81.49;97868.41;7385777;19;20018;-70
2022/09/13 03:21:37;;;;;;;7.40;4.93;;;;;;;12.99;81.94;97870.88;7388765;19;20025;-70
2022/09/13 03:24:48;;;;;;;5.18;4.68;;;;;;;13.05;82.10;97865.66;7382986;19;20018;-70
2022/09/13 03:27:32;;;;;;;6.07;5.22;;;;;;;13.13;82.06;97849.63;7382466;19;20035;-70
2022/09/13 03:30:06;;;;;;;5.38;4.53;;;;;;;13.13;81.99;97851.44;7388681;19;20018;-70
2022/09/13 03:32:56;;;;;;;5.65;4.85;;;;;;;13.15;81.91;97844.94;7387934;19;20065;-70
2022/09/13 03:35:34;;;;;;;6.72;4.30;;;;;;;13.26;81.73;97835.72;7382959;19;20014;-70
2022/09/13 03:38:08;;;;;;;5.68;4.63;;;;;;;13.28;81.74;97840.84;7386241;19;20014;-70
2022/09/13 03:40:49;;;;;;;7.20;4.57;;;;;;;13.29;81.59;97845.16;7389236;19;20021;-70
2022/09/13 03:43:24;;;;;;;5.05;4.38;;;;;;;13.23;81.03;97859.97;7385635;19;20034;-70
2022/09/13 03:45:54;;;;;;;5.25;4.50;;;;;;;13.20;81.43;97872.81;7386453;19;20015;-70
2022/09/13 03:48:22;;;;;;;6.65;4.50;;;;;;;13.14;81.23;97879.69;7384803;19;20018;-70
2022/09/13 03:50:51;;;;;;;5.93;5.05;;;;;;;13.07;81.15;97879.56;7389401;19;20027;-70
2022/09/13 03:53:29;;;;;;;6.03;5.43;;;;;;;13.04;80.82;97871.16;7383499;19;20462;-70
2022/09/13 03:55:55;;;;;;;6.40;4.45;;;;;;;12.94;80.70;97866.13;7386828;19;20089;-70
2022/09/13 03:58:25;;;;;;;8.30;5.10;;;;;;;12.83;80.73;97861.28;7387733;19;20506;-70
2022/09/13 04:00:53;;;;;;;5.65;4.97;;;;;;;12.71;81.10;97852.91;7387215;19;20015;-70
2022/09/13 04:03:20;;;;;;;6.13;4.68;;;;;;;12.72;81.29;97843.97;7386607;19;20029;-70
2022/09/13 04:05:47;;;;;;;5.93;4.68;;;;;;;12.74;81.41;97845.44;7387963;19;20485;-70
2022/09/13 04:08:13;;;;;;;5.60;5.03;;;;;;;12.63;81.60;97848.53;7386436;19;20043;-71
2022/09/13 04:10:40;;;;;;;4.45;4.05;;;;;;;12.68;81.62;97845.31;7387515;19;20029;-70
2022/09/13 04:13:07;;;;;;;4.97;4.47;;;;;;;12.70;81.40;97845.97;7386569;19;20011;-70
2022/09/13 04:15:34;;;;;;;8.35;4.88;;;;;;;12.63;81.65;97834.44;7388902;19;20038;-70
2022/09/13 04:18:01;;;;;;;11.10;4.53;;;;;;;12.52;82.01;97830.41;7385501;19;20022;-70
2022/09/13 04:20:28;;;;;;;8.13;4.80;;;;;;;12.53;82.27;97832.03;7385552;19;20022;-70
2022/09/13 04:22:56;;;;;;;5.70;4.65;;;;;;;12.40;82.53;97834.50;7385937;19;20014;-70
2022/09/13 04:25:23;;;;;;;5.30;4.80;;;;;;;12.35;82.91;97836.84;7383766;19;20014;-70
2022/09/13 04:27:54;;;;;;;6.80;5.38;;;;;;;12.37;82.92;97829.56;7381949;19;20113;-70
2022/09/13 04:30:21;;;;;;;5.95;4.95;;;;;;;12.55;82.63;97832.69;7388451;19;20018;-70
2022/09/13 04:32:48;;;;;;;6.20;4.68;;;;;;;12.65;82.84;97832.44;7386936;19;20062;-70
2022/09/13 04:35:18;;;;;;;7.22;4.80;;;;;;;12.72;82.82;97842.13;7377890;19;20052;-70
2022/09/13 04:37:45;;;;;;;6.05;5.18;;;;;;;12.81;82.89;97855.31;7383410;19;20034;-70
2022/09/13 04:40:12;;;;;;;10.32;5.40;;;;;;;12.88;82.47;97858.91;7388093;19;20389;-70
2022/09/13 04:42:39;;;;;;;6.75;4.82;;;;;;;13.01;82.36;97867.03;7384499;19;20010;-70
2022/09/13 04:45:07;;;;;;;10.43;5.40;;;;;;;13.10;81.75;97879.19;7384885;19;20011;-70
2022/09/13 04:47:34;;;;;;;6.00;5.35;;;;;;;13.05;81.18;97872.81;7382294;19;20342;-70
2022/09/13 04:50:00;;;;;;;9.73;5.32;;;;;;;13.12;81.65;97873.72;7385757;19;20023;-71
2022/09/13 04:52:27;;;;;;;7.32;5.60;;;;;;;13.05;81.13;97875.47;7383514;19;20022;-70
2022/09/13 04:54:54;;;;;;;6.10;5.30;;;;;;;13.04;81.71;97874.63;7379558;19;20018;-70
2022/09/13 04:57:21;;;;;;;5.13;4.63;;;;;;;13.00;80.85;97870.69;7378523;19;20845;-70
2022/09/13 04:59:48;;;;;;;6.88;5.00;;;;;;;13.06;80.43;97874.44;7381644;19;22582;-71
2022/09/13 05:02:15;;;;;;;7.80;4.90;;;;;;;13.11;80.25;97888.00;7381943;19;20018;-71
2022/09/13 05:04:42;;;;;;;6.93;5.40;;;;;;;13.08;79.92;97877.75;7382115;19;20014;-71
2022/09/13 05:07:08;;;;;;;6.20;5.13;;;;;;;13.11;80.06;97885.34;7382719;19;20034;-71
2022/09/13 05:09:35;;;;;;;6.50;5.35;;;;;;;13.05;80.17;97900.19;7384245;19;20007;-71
2022/09/13 05:12:02;;;;;;;5.47;4.90;;;;;;;13.17;80.41;97906.69;7383331;19;20014;-71
2022/09/13 05:14:29;;;;;;;5.28;4.55;;;;;;;13.23;80.00;97899.81;7378762;19;20043;-71
2022/09/13 05:16:57;;;;;;;5.05;4.50;;;;;;;13.31;80.08;97899.75;7380559;19;20743;-71
2022/09/13 05:19:24;;;;;;;8.40;3.92;;;;;;;13.32;80.34;97895.25;7381044;19;20018;-71
2022/09/13 05:21:51;;;;;;;6.10;4.40;;;;;;;13.39;80.59;97896.97;7384415;19;20006;-72
2022/09/13 05:24:18;;;;;;;5.55;4.93;;;;;;;13.51;80.61;97885.91;7380431;19;20561;-72
2022/09/13 05:26:44;;;;;;;5.32;4.45;;;;;;;13.59;80.47;97889.25;7380890;19;20025;-72
2022/09/13 05:29:11;;;;;;;6.68;4.43;;;;;;;13.67;80.21;97898.97;7383422;19;20018;-72
2022/09/13 05:31:39;;;;;;;8.50;4.50;;;;;;;13.70;80.11;97903.09;7377864;19;20022;-72
2022/09/13 05:34:11;;;;;;;5.90;4.80;;;;;;;13.68;79.86;97905.09;7380031;19;20023;-72
2022/09/13 05:36:38;;;;;;;8.05;4.30;;;;;;;13.83;79.26;97898.72;7379103;19;20026;-72
2022/09/13 05:39:06;;;;;;;6.85;4.43;;;;;;;13.87;79.17;97903.66;7383093;19;20392;-72
2022/09/13 05:41:53;;;;;;;8.88;4.18;;;;;;;13.91;79.41;97902.28;7381559;19;20017;-72
2022/09/13 05:44:20;;;;;;;5.55;4.60;;;;;;;13.79;78.89;97913.41;7383266;19;20018;-72
2022/09/13 05:46:47;;;;;;;7.32;5.18;;;;;;;13.61;78.96;97911.16;7384095;19;20019;-71
2022/09/13 05:49:15;;;;;;;7.35;4.93;;;;;;;13.52;78.97;97917.59;7381283;19;20033;-71
2022/09/13 05:51:41;;;;;;;7.32;5.47;;;;;;;13.51;79.14;97923.09;7379851;19;20048;-71
2022/09/13 05:54:11;;;;;;;5.97;4.90;;;;;;;13.52;79.06;97925.56;7384549;19;20038;-72
2022/09/13 05:56:38;;;;;;;8.52;5.53;;;;;;;13.51;79.63;97915.94;7385258;19;20015;-71
2022/09/13 05:59:05;;;;;;;6.47;4.97;;;;;;;13.69;79.70;97907.59;7386111;19;20011;-71
2022/09/13 06:01:32;;;;;;;8.85;4.88;;;;;;;13.77;79.27;97906.63;7391246;19;20050;-71
2022/09/13 06:03:59;;;;;;;6.63;5.13;;;;;;;13.85;78.84;97909.19;7392274;19;20015;-71
2022/09/13 06:06:26;;;;;;;11.38;5.07;;;;;;;14.11;78.74;97903.28;7389235;19;20018;-71
2022/09/13 06:08:54;;;;;;;7.10;4.53;;;;;;;14.32;78.21;97906.97;7392805;19;20010;-72
2022/09/13 06:11:21;;;;;;;8.25;4.00;;;;;;;14.60;77.53;97917.69;7393829;19;20030;-71
2022/09/13 06:13:49;;;;;;;6.50;4.45;;;;;;;14.83;77.01;97910.28;7385783;19;20015;-71
2022/09/13 06:16:16;;;;;;;4.93;3.95;;;;;;;14.91;76.39;97909.31;7387704;19;20042;-72
2022/09/13 06:18:43;;;;;;;6.35;4.05;;;;;;;15.03;75.54;97914.91;7391603;19;20031;-71
2022/09/13 06:21:16;;;;;;;7.60;4.40;;;;;;;15.15;74.28;97918.69;7391831;19;20014;-71
2022/09/13 06:23:48;;;;;;;6.55;4.45;;;;;;;15.14;74.96;97925.06;7387851;19;20493;-72
2022/09/13 06:26:16;;;;;;;9.80;4.40;;;;;;;15.06;74.60;97928.69;7387397;19;20073;-72
2022/09/13 06:28:47;;;;;;;5.13;3.72;;;;;;;15.05;75.01;97928.88;7390558;19;20478;-72
2022/09/13 06:31:21;;;;;;;7.53;4.68;;;;;;;14.97;74.49;97926.38;7389965;19;20010;-72
2022/09/13 06:33:48;;;;;;;4.93;4.35;;;;;;;14.80;75.13;97923.19;7385703;19;20830;-71
2022/09/13 06:36:17;;;;;;;6.97;4.47;;;;;;;14.73;75.89;97917.78;7390199;19;20019;-71
2022/09/13 06:38:45;;;;;;;5.30;4.25;;;;;;;14.75;76.59;97912.28;7389412;19;20084;-71
2022/09/13 06:41:14;;;;;;;6.85;4.55;;;;;;;14.70;77.32;97918.19;7388889;19;20018;-71
2022/09/13 06:43:41;;;;;;;7.78;4.70;;;;;;;14.67;77.45;97921.25;7386338;19;20021;-71
2022/09/13 06:46:16;;;;;;;6.05;4.60;;;;;;;14.67;76.56;97908.75;7389628;19;20014;-71
2022/09/13 06:48:49;;;;;;;9.80;4.20;;;;;;;14.67;76.60;97906.09;7386975;19;20090;-71
2022/09/13 06:51:18;;;;;;;7.60;5.10;;;;;;;14.66;76.40;97898.28;7387341;19;20010;-71
2022/09/13 06:53:47;;;;;;;5.93;5.22;;;;;;;14.69;76.45;97900.56;7389856;19;20485;-71
2022/09/13 06:56:16;;;;;;;11.45;6.18;;;;;;;14.74;76.61;97907.97;7388739;19;20022;-71
2022/09/13 06:58:44;;;;;;;6.82;6.07;;;;;;;15.03;77.06;97909.59;7385232;19;20010;-72
2022/09/13 07:01:36;;;;;;;8.80;5.30;;;;;;;15.22;76.77;97911.56;7389919;19;20043;-72
2022/09/13 07:04:08;;;;;;;7.20;4.70;;;;;;;15.40;75.22;97903.03;7387467;19;20021;-72
2022/09/13 07:06:37;;;;;;;10.52;7.38;;;;;;;15.50;75.67;97906.16;7383378;19;20025;-72
2022/09/13 07:09:09;;;;;;;12.30;7.45;;;;;;;15.65;75.17;97892.69;7388812;19;20007;-72
2022/09/13 07:11:37;;;;;;;13.25;7.22;;;;;;;15.87;74.54;97896.06;7385999;19;20372;-71
2022/09/13 07:14:05;;;;;;;10.48;6.68;;;;;;;16.16;73.98;97892.22;7387039;19;20014;-71
2022/09/13 07:16:34;;;;;;;15.60;8.48;;;;;;;16.49;72.31;97894.09;7388478;19;20006;-72
2022/09/13 07:19:05;;;;;;;11.75;7.40;;;;;;;16.76;71.23;97894.91;7388781;19;20022;-72
2022/09/13 07:21:33;;;;;;;7.07;4.18;;;;;;;16.76;71.76;97916.28;7387584;19;20043;-72
2022/09/13 07:24:01;;;;;;;5.55;3.20;;;;;;;16.82;71.49;97910.13;7383674;19;20498;-72
2022/09/13 07:26:27;;;;;;;5.10;3.58;;;;;;;16.89;71.13;97894.94;7388796;19;20014;-72
2022/09/13 07:28:57;;;;;;;13.50;4.15;;;;;;;16.91;71.75;97889.38;7386040;19;20018;-72
2022/09/13 07:31:35;;;;;;;5.88;4.13;;;;;;;16.91;71.84;97888.56;7386329;19;20037;-72
2022/09/13 07:34:04;;;;;;;4.75;3.22;;;;;;;17.04;71.15;97880.53;7385729;19;20018;-72
2022/09/13 07:36:33;;;;;;;7.00;4.07;;;;;;;17.01;71.23;97875.56;7387847;19;20039;-72
2022/09/13 07:39:00;;;;;;;6.15;3.88;;;;;;;16.98;71.23;97882.19;7384817;19;20044;-72
2022/09/13 07:41:29;;;;;;;5.10;3.35;;;;;;;17.12;71.10;97888.31;7389472;19;20086;-72
2022/09/13 07:43:56;;;;;;;7.07;3.58;;;;;;;17.40;70.57;97893.34;7382252;19;20018;-72
2022/09/13 07:46:24;;;;;;;3.78;3.05;;;;;;;17.62;69.69;97893.09;7384435;19;20057;-72
2022/09/13 07:48:53;;;;;;;4.63;2.88;;;;;;;18.10;67.18;97889.97;7388795;19;20074;-72
2022/09/13 07:51:22;;;;;;;7.38;2.63;;;;;;;18.56;65.56;97899.53;7386910;19;20518;-72
2022/09/13 07:53:51;;;;;;;7.78;2.97;;;;;;;18.74;65.67;97896.88;7385259;19;20014;-72
2022/09/13 07:56:24;;;;;;;5.93;3.42;;;;;;;19.14;65.48;97896.56;7386441;19;20365;-72
2022/09/13 07:58:53;;;;;;;4.65;3.63;;;;;;;19.44;63.89;97896.63;7387606;19;20043;-73
2022/09/13 08:01:23;;;;;;;3.42;2.30;;;;;;;19.52;63.88;97885.59;7387200;19;20684;-73
2022/09/13 08:03:51;;;;;;;3.35;2.60;;;;;;;19.96;62.78;97880.13;7383539;19;20030;-73
2022/09/13 08:06:18;;;;;;;3.38;2.25;;;;;;;20.22;62.76;97870.84;7383208;19;20414;-73
2022/09/13 08:08:44;;;;;;;7.22;2.83;;;;;;;20.52;61.50;97875.34;7386900;19;20039;-73
2022/09/13 08:11:23;;;;;;;2.40;2.20;;;;;;;20.48;60.98;97869.59;7386285;19;20030;-72
2022/09/13 08:13:51;;;;;;;2.22;2.03;;;;;;;20.41;60.28;97873.47;7385302;19;20038;-73
2022/09/13 08:16:19;;;;;;;3.90;2.30;;;;;;;20.40;60.62;97872.63;7386292;19;20029;-73
2022/09/13 08:18:48;;;;;;;3.45;2.20;;;;;;;20.77;60.15;97878.69;7387272;19;20022;-73
2022/09/13 08:21:15;;;;;;;6.13;2.55;;;;;;;20.96;59.90;97876.69;7385439;19;20095;-73
2022/09/13 08:23:42;;;;;;;3.58;2.22;;;;;;;20.86;60.11;97868.38;7385911;19;20026;-73
2022/09/13 08:26:10;;;;;;;7.70;2.78;;;;;;;21.00;59.82;97866.25;7382526;19;20014;-73
2022/09/13 08:28:39;;;;;;;2.88;1.80;;;;;;;21.27;59.02;97864.72;7381629;19;20014;-73
2022/09/13 08:31:12;;;;;;;5.03;2.25;;;;;;;21.27;57.68;97862.03;7384650;19;20014;-73
2022/09/13 08:33:42;;;;;;;3.55;2.20;;;;;;;21.20;59.22;97868.59;7387036;19;20010;-73
2022/09/13 08:36:12;;;;;;;3.20;1.55;;;;;;;21.18;58.78;97873.38;7383187;19;20102;-73
2022/09/13 08:38:39;;;;;;;5.40;2.35;;;;;;;21.20;58.55;97873.97;7383229;19;20474;-73
2022/09/13 08:41:19;;;;;;;2.60;2.40;;;;;;;21.77;57.94;97874.06;7385175;19;20470;-73
2022/09/13 08:44:07;;;;;;;4.07;2.40;;;;;;;22.25;55.59;97864.75;7378603;19;20490;-73
2022/09/13 08:46:46;;;;;;;2.92;2.20;;;;;;;22.40;54.71;97864.16;7375485;19;20695;-73
2022/09/13 08:49:46;;;;;;;10.02;2.15;;;;;;;22.08;56.94;97861.97;7380092;19;20388;-73
2022/09/13 08:52:29;;;;;;;3.78;1.88;;;;;;;22.06;56.51;97865.97;7374645;19;20031;-73
2022/09/13 08:54:57;;;;;;;7.60;2.15;;;;;;;22.52;55.97;97862.22;7373004;19;20019;-72
2022/09/13 08:57:50;;;;;;;3.53;2.13;;;;;;;23.06;53.98;97853.59;7382763;19;20006;-72
2022/09/13 09:00:29;;;;;;;2.33;2.10;;;;;;;23.33;53.13;97860.94;7379318;19;20048;-73
2022/09/13 09:03:09;;;;;;;3.05;2.03;;;;;;;23.53;52.11;97855.00;7382468;19;20038;-73
2022/09/13 09:05:46;;;;;;;6.88;2.75;;;;;;;23.70;51.24;97861.16;7382150;19;20022;-74
2022/09/13 09:08:22;;;;;;;4.93;2.10;;;;;;;23.52;52.01;97864.19;7384516;19;20820;-73
2022/09/13 09:10:50;;;;;;;2.35;1.58;;;;;;;23.85;52.21;97860.50;7385459;19;20380;-73
2022/09/13 09:13:37;;;;;;;4.63;1.67;;;;;;;23.71;50.77;97856.56;7382488;19;20022;-73
2022/09/13 09:16:39;;;;;;;3.17;1.65;;;;;;;24.05;50.68;97844.53;7384768;19;20060;-73
2022/09/13 09:19:19;;;;;;;2.88;1.90;;;;;;;24.09;50.72;97837.53;7384110;19;20502;-73
2022/09/13 09:21:48;;;;;;;4.97;1.70;;;;;;;23.98;46.94;97841.19;7385152;19;20018;-73
2022/09/13 09:24:21;;;;;;;6.85;1.70;;;;;;;23.65;49.61;97843.00;7381457;19;20686;-74
2022/09/13 09:26:47;;;;;;;4.18;2.00;;;;;;;23.73;50.84;97851.75;7381900;19;20014;-73
2022/09/13 09:29:17;;;;;;;3.40;1.90;;;;;;;23.96;50.81;97859.56;7385441;19;20034;-74
2022/09/13 09:32:04;;;;;;;6.22;1.80;;;;;;;24.10;50.33;97855.38;7385240;19;20618;-73
2022/09/13 09:34:46;;;;;;;1.70;1.58;;;;;;;24.28;49.52;97866.91;7376584;19;20014;-74
2022/09/13 09:37:23;;;;;;;2.75;1.42;;;;;;;24.32;49.23;97858.00;7383918;19;20043;-74
2022/09/13 09:39:51;;;;;;;2.88;1.75;;;;;;;24.43;49.97;97856.19;7384681;19;20042;-74
2022/09/13 09:42:23;;;;;;;6.80;2.03;;;;;;;24.13;48.34;97837.03;7380896;19;20074;-73
2022/09/13 09:44:50;;;;;;;;;;;;;;;23.97;47.30;97839.56;7393754;19;20010;-73
2022/09/13 09:47:20;;;;;;;3.15;1.52;;;;;;;23.89;48.10;97840.03;7397644;19;19939;-74
2022/09/13 09:50:10;;;;;;;3.90;1.52;;;;;;;23.58;50.55;97838.88;7384973;19;20098;-73
2022/09/13 09:53:04;;;;;;;2.53;1.42;;;;;;;23.55;49.93;97845.59;7377917;19;20020;-73
2022/09/13 09:55:44;;;;;;;;;;;;;;;23.35;51.65;97840.75;7383638;19;20059;-73
2022/09/13 09:58:15;;;;;;;2.22;1.50;;;;;;;23.02;51.34;97844.38;7378994;19;19998;-73
2022/09/13 10:00:53;;;;;;;3.15;1.40;;;;;;;22.88;50.58;97849.28;7382918;19;20015;-72
2022/09/13 10:03:26;;;;;;;3.08;1.58;;;;;;;22.98;52.36;97851.31;7383399;19;20018;-73
2022/09/13 10:06:08;;;;;;;2.22;1.52;;;;;;;22.86;52.45;97856.00;7378623;19;20551;-73
2022/09/13 10:08:36;;;;;;;2.43;1.97;;;;;;;22.85;52.77;97848.94;7382009;19;20735;-73
2022/09/13 10:11:04;;;;;;;4.85;1.80;;;;;;;22.83;52.98;97856.47;7382843;19;20725;-73
2022/09/13 10:13:31;;;;;;;3.70;2.03;;;;;;;22.86;50.43;97861.38;7382014;19;20207;-73
2022/09/13 10:16:02;;;;;;;4.45;1.65;;;;;;;23.11;52.05;97852.84;7380933;19;20022;-73
2022/09/13 10:18:33;;;;;;;3.28;2.10;;;;;;;23.33;53.95;97850.16;7379513;19;20030;-73
2022/09/13 10:21:24;;;;;;;5.57;1.70;;;;;;;23.10;53.85;97851.22;7384041;19;20796;-73
2022/09/13 10:23:50;;;;;;;2.33;1.50;;;;;;;23.07;51.67;97857.94;7381215;19;20014;-73
2022/09/13 10:26:22;;;;;;;1.75;1.45;;;;;;;23.20;49.59;97862.97;7379213;19;20043;-73
2022/09/13 10:28:55;;;;;;;4.15;1.58;;;;;;;23.21;49.21;97853.00;7381219;19;20019;-73
2022/09/13 10:31:29;;;;;;;1.70;1.33;;;;;;;23.12;51.05;97849.91;7384470;19;20022;-73
2022/09/13 10:34:16;;;;;;;12.02;1.83;;;;;;;23.08;51.12;97856.88;7380099;19;20047;-73
2022/09/13 10:36:52;;;;;;;2.05;1.20;;;;;;;23.33;49.49;97844.75;7380958;19;20060;-73
2022/09/13 10:39:21;;;;;;;3.20;1.58;;;;;;;23.52;48.54;97848.78;7381035;19;20023;-73
2022/09/13 10:42:00;;;;;;;2.70;1.40;;;;;;;23.69;51.19;97834.38;7379318;19;20044;-73
2022/09/13 10:44:43;;;;;;;3.67;1.60;;;;;;;23.54;50.96;97832.31;7379330;19;20022;-73
2022/09/13 10:47:18;;;;;;;1.88;1.20;;;;;;;23.62;49.18;97821.09;7391052;19;20010;-73
2022/09/13 10:49:46;;;;;;;1.90;1.20;;;;;;;23.71;48.68;97829.56;7387626;19;20043;-73
2022/09/13 10:52:27;;;;;;;2.40;1.02;;;;;;;23.72;49.74;97818.50;7385133;19;20022;-73
2022/09/13 10:54:57;;;;;;;4.75;1.30;;;;;;;23.47;47.10;97821.72;7387951;19;20047;-73
2022/09/13 10:57:35;;;;;;;1.85;1.02;;;;;;;23.66;46.37;97819.50;7383388;19;20548;-73
2022/09/13 11:00:08;;;;;;;3.75;1.00;;;;;;;23.81;46.61;97818.88;7386375;19;20043;-73
2022/09/13 11:02:48;;;;;;;1.58;0.80;;;;;;;23.93;45.03;97816.03;7391212;19;20044;-72
2022/09/13 11:05:17;;;;;;;1.02;0.90;;;;;;;24.36;42.87;97827.78;7386875;19;22141;-73
2022/09/13 11:08:10;;;;;;;1.95;1.10;;;;;;;24.86;41.48;97824.63;7384195;19;20728;-72
2022/09/13 11:10:37;;;;;;;1.00;0.93;;;;;;;25.75;44.06;97827.44;7390141;19;20011;-72
2022/09/13 11:13:27;;;;;;;1.00;1.00;;;;;;;26.58;36.51;97810.22;7388139;19;20011;-72
2022/09/13 11:15:53;;;;;;;1.63;0.75;;;;;;;26.65;37.51;97811.56;7386296;19;20035;-72
2022/09/13 11:18:32;;;;;;;2.00;0.80;;;;;;;26.61;41.03;97807.75;7388924;19;20014;-72
2022/09/13 11:21:35;;;;;;;1.80;0.85;;;;;;;26.52;40.07;97809.41;7387385;19;20018;-73
2022/09/13 11:24:23;;;;;;;5.38;1.17;;;;;;;26.79;42.17;97806.38;7382885;19;20018;-72
2022/09/13 11:27:01;;;;;;;1.48;0.80;;;;;;;27.19;40.50;97815.53;7385284;19;20018;-73
2022/09/13 11:29:45;;;;;;;4.68;1.00;;;;;;;27.49;38.83;97820.03;7388342;19;20045;-73
2022/09/13 11:32:36;;;;;;;2.30;0.85;;;;;;;27.58;38.66;97810.19;7387595;19;20048;-72
2022/09/13 11:35:27;;;;;;;0.93;0.70;;;;;;;27.36;38.53;97810.56;7387095;19;20018;-73
2022/09/13 11:38:12;;;;;;;0.73;0.73;;;;;;;27.72;39.16;97804.94;7388536;19;20006;-72
2022/09/13 11:40:50;;;;;;;3.47;0.70;;;;;;;27.53;37.42;97806.69;7382722;19;20098;-72
2022/09/13 11:43:38;;;;;;;1.25;0.80;;;;;;;27.47;38.84;97810.53;7387330;19;20010;-72
2022/09/13 11:46:12;;;;;;;3.08;0.85;;;;;;;27.27;40.61;97811.41;7388543;19;20719;-73
2022/09/13 11:48:54;;;;;;;2.47;0.80;;;;;;;27.04;36.87;97821.81;7384372;19;20082;-73
2022/09/13 11:51:40;;;;;;;3.97;0.90;;;;;;;26.94;39.27;97832.69;7388652;19;20014;-73
2022/09/13 11:54:40;;;;;;;1.30;0.82;;;;;;;26.74;38.73;97819.97;7382010;19;20015;-74
2022/09/13 11:57:14;;;;;;;1.75;0.77;;;;;;;26.33;37.55;97816.44;7382209;19;20384;-73
2022/09/13 11:59:55;;;;;;;5.05;1.00;;;;;;;26.22;37.20;97818.31;7383874;19;20029;-73
2022/09/13 12:02:36;;;;;;;1.27;0.77;;;;;;;26.56;35.54;97806.97;7384232;19;20398;-73